Time;durP1;ratioP1;P1;durP2;ratioP2;P2;SDS_P1;SDS_P2;PMS_P1;PMS_P2;Temp;Humidity;BMP_temperature;BMP_pressure;BME280_temperature;BME280_humidity;BME280_pressure;Samples;Min_cycle;Max_cycle;Signal;HPM_P1;HPM_P2
2024/01/20 00:01:22;;;;;;;12.10;5.10;;;;;;;2.89;52.70;100463.73;105377;1254;63750;-58
2024/01/20 00:03:50;;;;;;;20.00;4.90;;;;;;;2.93;52.76;100469.75;105439;1253;60513;-60
2024/01/20 00:06:18;;;;;;;8.70;3.30;;;;;;;2.96;52.81;100480.73;105515;1257;60422;-60
2024/01/20 00:08:46;;;;;;;12.50;3.90;;;;;;;2.95;52.71;100496.19;105538;1257;65348;-60
2024/01/20 00:11:13;;;;;;;10.50;4.20;;;;;;;2.95;52.68;100506.08;105321;1258;60506;-60
2024/01/20 00:13:42;;;;;;;10.30;3.60;;;;;;;2.92;52.51;100505.01;105234;1253;62462;-61
2024/01/20 00:16:10;;;;;;;8.30;3.40;;;;;;;2.88;52.49;100496.16;105655;1258;60475;-63
2024/01/20 00:18:37;;;;;;;12.00;4.60;;;;;;;2.86;52.44;100492.82;105853;1253;60549;-61
2024/01/20 00:21:05;;;;;;;11.10;3.90;;;;;;;2.82;52.48;100496.44;106691;1255;73853;-62
2024/01/20 00:23:33;;;;;;;11.10;5.00;;;;;;;2.77;52.44;100493.52;105301;1253;62978;-60
2024/01/20 00:26:01;;;;;;;9.50;4.40;;;;;;;2.71;52.41;100497.79;105256;1254;63763;-61
2024/01/20 00:28:28;;;;;;;10.00;4.50;;;;;;;2.64;52.59;100502.79;105390;1253;60441;-62
2024/01/20 00:30:56;;;;;;;10.60;3.70;;;;;;;2.59;52.59;100509.09;105423;1254;60418;-60
2024/01/20 00:33:25;;;;;;;9.60;4.10;;;;;;;2.52;52.75;100513.54;105333;1258;64926;-61
2024/01/20 00:35:53;;;;;;;8.90;3.40;;;;;;;2.45;52.86;100515.08;105425;1256;60444;-60
2024/01/20 00:38:21;;;;;;;14.00;4.00;;;;;;;2.40;53.11;100509.77;105306;1253;63958;-56
2024/01/20 00:40:49;;;;;;;9.20;4.00;;;;;;;2.36;53.25;100502.96;105275;1254;60437;-60
2024/01/20 00:43:16;;;;;;;9.50;4.00;;;;;;;2.35;53.37;100504.23;105328;1258;60796;-61
2024/01/20 00:45:45;;;;;;;10.10;3.00;;;;;;;2.39;53.38;100504.60;105327;1253;63713;-62
2024/01/20 00:48:12;;;;;;;8.20;3.60;;;;;;;2.48;53.37;100498.84;105595;1253;61332;-63
2024/01/20 00:50:40;;;;;;;10.10;3.50;;;;;;;2.59;53.20;100501.44;105793;1257;62430;-62
2024/01/20 00:53:08;;;;;;;8.60;3.00;;;;;;;2.70;53.18;100504.30;105243;1256;60424;-61
2024/01/20 00:55:36;;;;;;;9.70;3.40;;;;;;;2.76;53.11;100518.39;105401;1253;60566;-61
2024/01/20 00:58:03;;;;;;;10.50;4.50;;;;;;;2.71;52.97;100521.73;105898;1253;64916;-61
2024/01/20 01:00:31;;;;;;;9.40;4.90;;;;;;;2.65;53.17;100527.04;105326;1253;61368;-61
2024/01/20 01:02:58;;;;;;;13.00;4.80;;;;;;;2.62;53.30;100534.79;105112;1257;281832;-64
2024/01/20 01:05:26;;;;;;;11.80;4.40;;;;;;;2.58;53.34;100529.21;105267;1253;60532;-60
2024/01/20 01:09:04;;;;;;;11.30;5.40;;;;;;;2.23;54.31;100521.73;102432;1291;602385;-64
2024/01/20 01:11:31;;;;;;;13.00;4.60;;;;;;;2.51;53.65;100518.27;105766;1259;59185;-67
2024/01/20 01:13:57;;;;;;;11.20;4.00;;;;;;;2.51;53.59;100521.39;106699;1256;59257;-62
2024/01/20 01:16:24;;;;;;;16.40;5.20;;;;;;;2.46;53.69;100525.62;105980;1256;63599;-62
2024/01/20 01:18:51;;;;;;;10.00;4.30;;;;;;;2.40;53.84;100532.78;105233;1257;61897;-61
2024/01/20 01:21:18;;;;;;;11.50;4.50;;;;;;;2.35;53.89;100539.38;104939;1255;261588;-61
2024/01/20 01:23:44;;;;;;;7.90;3.90;;;;;;;2.31;54.05;100542.33;105520;1259;59269;-63
2024/01/20 01:26:11;;;;;;;11.70;4.50;;;;;;;2.28;54.27;100540.91;105410;1253;60134;-61
2024/01/20 01:28:38;;;;;;;9.20;3.50;;;;;;;2.31;54.31;100537.86;105792;1257;63878;-57
2024/01/20 01:31:05;;;;;;;7.30;2.60;;;;;;;2.41;54.28;100535.84;105889;1253;61771;-63
2024/01/20 01:33:32;;;;;;;8.70;3.00;;;;;;;2.52;54.14;100537.62;105932;1257;63797;-61
2024/01/20 01:35:59;;;;;;;9.00;2.80;;;;;;;2.59;54.04;100546.14;105418;1253;59858;-62
2024/01/20 01:38:26;;;;;;;8.40;3.50;;;;;;;2.62;53.94;100548.61;105460;1254;59749;-60
2024/01/20 01:40:54;;;;;;;10.90;3.70;;;;;;;2.60;54.04;100548.00;105308;1257;64407;-62
2024/01/20 01:43:21;;;;;;;8.90;4.60;;;;;;;2.58;54.20;100547.08;105364;1257;60250;-62
2024/01/20 01:45:48;;;;;;;18.40;5.60;;;;;;;2.56;54.34;100542.45;105557;1254;64080;-62
2024/01/20 01:48:15;;;;;;;11.20;4.00;;;;;;;2.60;54.40;100548.70;105717;1257;60080;-60
2024/01/20 01:50:42;;;;;;;11.50;5.10;;;;;;;2.60;54.35;100554.05;105429;1258;59799;-60
2024/01/20 01:53:09;;;;;;;14.40;5.60;;;;;;;2.58;54.41;100559.89;105263;1255;64295;-63
2024/01/20 01:55:35;;;;;;;10.80;3.60;;;;;;;2.54;54.48;100564.89;105320;1254;60564;-61
2024/01/20 01:58:02;;;;;;;16.00;6.00;;;;;;;2.51;54.44;100569.90;105269;1255;63836;-62
2024/01/20 02:00:29;;;;;;;11.10;5.00;;;;;;;2.47;54.61;100561.92;105327;1254;59662;-61
2024/01/20 02:02:56;;;;;;;11.80;5.80;;;;;;;2.44;54.64;100562.93;105443;1254;59639;-61
2024/01/20 02:05:23;;;;;;;9.50;4.50;;;;;;;2.38;54.65;100562.98;105406;1260;64447;-60
2024/01/20 02:07:50;;;;;;;11.80;5.20;;;;;;;2.32;54.74;100566.19;105299;1259;61504;-62
2024/01/20 02:10:17;;;;;;;9.60;4.20;;;;;;;2.28;54.81;100562.90;105604;1253;63782;-62
2024/01/20 02:12:45;;;;;;;9.30;4.00;;;;;;;2.26;54.81;100566.11;105469;1256;59742;-63
2024/01/20 02:15:12;;;;;;;9.60;4.20;;;;;;;2.21;54.85;100566.48;105629;1259;59637;-61
2024/01/20 02:17:51;;;;;;;12.90;5.50;;;;;;;2.19;54.64;100571.09;105282;1259;64308;-62
2024/01/20 02:20:18;;;;;;;9.10;3.90;;;;;;;2.24;54.40;100574.48;105467;1257;61505;-62
2024/01/20 02:22:45;;;;;;;13.10;5.90;;;;;;;2.33;54.21;100581.39;105746;1259;64023;-61
2024/01/20 02:25:12;;;;;;;8.80;4.00;;;;;;;2.36;54.04;100588.50;105356;1253;59638;-64
2024/01/20 02:27:39;;;;;;;10.50;3.80;;;;;;;2.36;53.93;100596.15;105609;1254;59642;-62
2024/01/20 02:30:06;;;;;;;15.60;6.00;;;;;;;2.34;53.82;100601.44;105819;1258;64353;-64
2024/01/20 02:32:33;;;;;;;10.10;4.10;;;;;;;2.32;53.74;100604.64;105856;1257;61705;-63
2024/01/20 02:35:00;;;;;;;17.30;5.60;;;;;;;2.28;53.85;100600.14;105973;1257;63871;-62
2024/01/20 02:37:27;;;;;;;9.20;4.80;;;;;;;2.22;53.90;100597.24;105275;1259;59750;-62
2024/01/20 02:39:54;;;;;;;13.20;5.30;;;;;;;2.17;53.90;100610.09;107085;1258;59787;-64
2024/01/20 02:42:21;;;;;;;12.00;4.50;;;;;;;2.10;54.06;100619.02;105446;1255;64275;-61
2024/01/20 02:44:48;;;;;;;14.10;4.00;;;;;;;2.03;54.21;100619.15;105533;1258;61470;-61
2024/01/20 02:47:15;;;;;;;13.00;5.70;;;;;;;1.99;54.38;100618.95;105676;1253;63834;-60
2024/01/20 02:49:41;;;;;;;12.40;4.40;;;;;;;1.93;54.54;100622.15;105260;1259;59650;-61
2024/01/20 02:52:09;;;;;;;11.00;3.50;;;;;;;1.95;54.62;100624.84;105675;1254;59692;-60
2024/01/20 02:54:35;;;;;;;12.80;5.60;;;;;;;2.02;54.60;100636.49;105758;1257;64190;-61
2024/01/20 02:57:03;;;;;;;8.20;2.50;;;;;;;2.09;54.66;100638.66;105835;1259;61577;-61
2024/01/20 02:59:29;;;;;;;11.30;4.80;;;;;;;2.10;54.59;100634.45;105988;1259;64456;-60
2024/01/20 03:01:58;;;;;;;14.60;6.40;;;;;;;2.09;54.71;100645.22;106036;1257;59571;-65
2024/01/20 03:04:24;;;;;;;13.00;4.60;;;;;;;2.12;54.73;100648.40;105354;1256;59711;-68
2024/01/20 03:06:51;;;;;;;10.80;4.60;;;;;;;2.10;54.65;100654.19;105489;1257;64352;-68
2024/01/20 03:09:18;;;;;;;12.80;5.10;;;;;;;2.05;54.64;100659.57;105342;1258;61505;-63
2024/01/20 03:11:45;;;;;;;10.50;4.00;;;;;;;2.05;54.52;100664.58;105481;1259;62795;-65
2024/01/20 03:14:12;;;;;;;13.00;5.40;;;;;;;2.00;54.49;100666.48;105675;1257;60000;-69
2024/01/20 03:16:39;;;;;;;12.20;4.70;;;;;;;1.94;54.62;100663.09;105365;1258;59566;-66
2024/01/20 03:19:06;;;;;;;15.00;4.10;;;;;;;1.91;54.63;100665.30;105807;1257;64806;-70
2024/01/20 03:21:33;;;;;;;14.50;5.90;;;;;;;1.92;54.53;100664.23;105926;1256;62098;-60
2024/01/20 03:24:00;;;;;;;16.20;5.90;;;;;;;1.96;54.45;100664.93;105864;1255;63821;-65
2024/01/20 03:26:27;;;;;;;13.90;6.30;;;;;;;2.01;54.39;100672.01;105334;1258;59823;-66
2024/01/20 03:28:54;;;;;;;16.20;6.70;;;;;;;2.01;54.46;100674.06;105262;1254;59702;-64
2024/01/20 03:31:21;;;;;;;14.50;5.30;;;;;;;2.00;54.52;100673.23;105417;1255;64752;-71
2024/01/20 03:33:48;;;;;;;15.10;6.30;;;;;;;2.00;54.36;100678.27;105358;1254;61697;-67
2024/01/20 03:36:15;;;;;;;12.50;5.30;;;;;;;1.97;54.36;100684.11;105279;1254;63728;-67
2024/01/20 03:38:41;;;;;;;12.50;5.30;;;;;;;1.92;54.31;100690.52;105288;1258;59863;-63
2024/01/20 03:41:08;;;;;;;11.70;4.90;;;;;;;1.87;54.45;100692.80;105270;1254;59553;-66
2024/01/20 03:43:35;;;;;;;11.30;4.30;;;;;;;1.81;54.48;100694.92;105827;1256;64127;-61
2024/01/20 03:46:02;;;;;;;13.50;7.80;;;;;;;1.73;54.45;100691.09;105906;1256;62032;-65
2024/01/20 03:48:29;;;;;;;16.20;6.10;;;;;;;1.70;54.62;100700.56;105367;1259;64088;-64
2024/01/20 03:50:56;;;;;;;12.80;5.30;;;;;;;1.74;54.53;100702.48;105431;1253;59507;-63
2024/01/20 03:53:23;;;;;;;12.30;5.00;;;;;;;1.76;54.60;100705.67;105367;1259;59651;-63
2024/01/20 03:55:50;;;;;;;12.60;6.90;;;;;;;1.75;54.61;100708.48;105244;1259;64916;-62
2024/01/20 03:58:16;;;;;;;13.90;5.20;;;;;;;1.74;54.57;100712.18;105482;1267;61660;-64
2024/01/20 04:00:43;;;;;;;13.30;5.80;;;;;;;1.69;54.53;100716.66;105748;1259;63821;-62
2024/01/20 04:03:10;;;;;;;17.10;6.20;;;;;;;1.61;54.50;100720.05;105732;1259;59647;-59
2024/01/20 04:05:39;;;;;;;16.10;7.30;;;;;;;1.51;54.47;100725.96;105718;1256;59642;-60
2024/01/20 04:08:07;;;;;;;11.40;4.80;;;;;;;1.42;54.80;100732.73;105852;1254;64371;-62
2024/01/20 04:10:35;;;;;;;9.70;4.00;;;;;;;1.45;54.71;100742.09;105845;1254;61369;-62
2024/01/20 04:13:02;;;;;;;16.60;6.90;;;;;;;1.49;54.75;100747.48;105274;1257;63780;-60
2024/01/20 04:15:29;;;;;;;14.00;4.70;;;;;;;1.49;54.91;100749.39;105977;1259;59667;-59
2024/01/20 04:17:56;;;;;;;14.30;6.40;;;;;;;1.47;55.05;100745.50;105340;1254;59747;-59
2024/01/20 04:20:23;;;;;;;13.30;5.80;;;;;;;1.45;54.97;100747.79;105336;1259;64394;-60
2024/01/20 04:22:49;;;;;;;14.80;6.30;;;;;;;1.43;55.02;100748.22;105522;1258;62060;-59
2024/01/20 04:25:16;;;;;;;16.50;6.80;;;;;;;1.40;55.12;100755.94;105454;1257;63987;-60
2024/01/20 04:27:44;;;;;;;17.60;6.00;;;;;;;1.37;55.35;100756.92;105639;1253;59783;-61
2024/01/20 04:30:12;;;;;;;15.00;6.60;;;;;;;1.42;55.36;100758.98;105635;1254;62591;-60
2024/01/20 04:32:39;;;;;;;14.60;6.30;;;;;;;1.44;55.29;100757.53;105689;1259;64779;-67
2024/01/20 04:35:06;;;;;;;15.70;5.80;;;;;;;1.44;55.25;100763.91;105876;1256;60315;-63
2024/01/20 04:37:33;;;;;;;14.70;6.70;;;;;;;1.43;55.45;100764.28;105936;1260;64741;-61
2024/01/20 04:40:00;;;;;;;17.30;8.40;;;;;;;1.40;55.45;100767.52;105943;1254;59693;-61
2024/01/20 04:42:27;;;;;;;18.50;6.10;;;;;;;1.39;55.36;100776.91;105356;1253;59622;-63
2024/01/20 04:44:54;;;;;;;13.90;5.90;;;;;;;1.37;55.62;100776.79;106159;1256;64362;-61
2024/01/20 04:47:21;;;;;;;14.50;5.50;;;;;;;1.36;55.51;100779.61;105332;1257;61734;-60
2024/01/20 04:49:51;;;;;;;17.70;6.40;;;;;;;1.37;55.38;100781.45;105438;1259;64185;-60
2024/01/20 04:52:19;;;;;;;15.10;6.70;;;;;;;1.36;55.33;100782.89;105400;1258;59637;-60
2024/01/20 04:54:46;;;;;;;17.00;6.40;;;;;;;1.29;55.30;100788.29;105461;1261;60470;-62
2024/01/20 04:57:13;;;;;;;25.30;7.20;;;;;;;1.24;55.34;100786.73;105342;1257;64399;-64
2024/01/20 04:59:39;;;;;;;14.10;5.70;;;;;;;1.21;55.49;100791.86;105819;1255;62118;-60
2024/01/20 05:02:06;;;;;;;15.80;6.80;;;;;;;1.16;55.65;100792.05;105227;1259;64060;-60
2024/01/20 05:04:33;;;;;;;15.30;6.70;;;;;;;1.21;55.55;100799.83;105275;1253;61019;-63
2024/01/20 05:07:00;;;;;;;11.20;5.40;;;;;;;1.22;55.40;100799.96;105319;1254;59693;-58
2024/01/20 05:09:27;;;;;;;14.80;5.30;;;;;;;1.19;55.17;100798.34;105350;1254;64596;-62
2024/01/20 05:11:54;;;;;;;15.90;6.80;;;;;;;1.11;54.98;100803.09;105357;1255;62078;-62
2024/01/20 05:14:22;;;;;;;14.30;5.90;;;;;;;1.09;54.89;100808.02;105391;1254;64134;-60
2024/01/20 05:16:49;;;;;;;21.70;6.80;;;;;;;1.06;54.80;100810.35;105346;1257;60520;-61
2024/01/20 05:19:16;;;;;;;19.90;7.30;;;;;;;1.00;54.84;100807.62;105280;1254;60432;-59
2024/01/20 05:21:44;;;;;;;11.70;5.60;;;;;;;0.98;54.83;100813.02;105329;1257;65025;-59
2024/01/20 05:24:11;;;;;;;11.60;5.00;;;;;;;1.09;54.59;100819.58;105293;1257;61665;-60
2024/01/20 05:26:38;;;;;;;15.30;5.50;;;;;;;1.18;54.52;100826.53;105403;1258;64035;-61
2024/01/20 05:29:05;;;;;;;11.50;4.70;;;;;;;1.21;54.65;100828.15;106028;1254;60435;-62
2024/01/20 05:31:32;;;;;;;11.00;5.20;;;;;;;1.23;54.69;100829.66;105328;1254;60449;-61
2024/01/20 05:33:59;;;;;;;9.70;5.90;;;;;;;1.22;54.72;100836.08;106027;1256;65267;-61
2024/01/20 05:36:27;;;;;;;19.40;8.80;;;;;;;1.20;54.86;100833.21;105414;1257;61664;-60
2024/01/20 05:38:54;;;;;;;12.30;5.10;;;;;;;1.16;54.98;100833.66;105335;1259;63984;-60
2024/01/20 05:41:21;;;;;;;19.60;7.30;;;;;;;1.14;55.20;100841.20;105279;1254;60677;-60
2024/01/20 05:43:47;;;;;;;14.30;6.50;;;;;;;1.20;55.26;100852.58;105283;1263;60384;-60
2024/01/20 05:46:14;;;;;;;18.40;6.70;;;;;;;1.20;55.31;100854.13;105541;1257;65794;-59
2024/01/20 05:48:41;;;;;;;14.50;7.40;;;;;;;1.18;55.31;100859.02;105669;1254;61514;-60
2024/01/20 05:51:08;;;;;;;13.10;5.80;;;;;;;1.16;55.27;100862.18;105276;1257;64159;-60
2024/01/20 05:53:35;;;;;;;15.10;7.80;;;;;;;1.14;55.34;100867.10;105792;1254;60650;-60
2024/01/20 05:56:02;;;;;;;15.20;8.30;;;;;;;1.11;55.54;100868.25;105893;1254;59435;-60
2024/01/20 05:58:28;;;;;;;18.00;6.40;;;;;;;1.07;55.66;100874.22;105959;1258;65768;-61
2024/01/20 06:00:55;;;;;;;15.10;7.30;;;;;;;1.13;55.63;100877.31;105297;1254;61482;-60
2024/01/20 06:03:25;;;;;;;12.80;5.50;;;;;;;1.23;55.65;100880.63;106127;1254;64019;-60
2024/01/20 06:05:52;;;;;;;20.00;8.40;;;;;;;1.27;55.67;100886.91;107652;1257;59426;-52
2024/01/20 06:08:19;;;;;;;17.90;7.40;;;;;;;1.26;55.82;100896.06;105393;1260;60450;-65
2024/01/20 06:10:45;;;;;;;15.20;6.60;;;;;;;1.25;55.67;100901.47;105519;1260;65711;-63
2024/01/20 06:13:12;;;;;;;17.60;7.00;;;;;;;1.23;55.72;100910.36;105740;1256;62089;-59
2024/01/20 06:15:39;;;;;;;12.50;5.10;;;;;;;1.19;55.74;100913.94;105159;1255;64081;-60
2024/01/20 06:18:06;;;;;;;12.00;5.40;;;;;;;1.16;55.32;100918.02;105768;1254;60436;-63
2024/01/20 06:20:33;;;;;;;14.60;6.20;;;;;;;1.05;55.28;100921.29;105884;1254;60464;-62
2024/01/20 06:23:00;;;;;;;16.10;5.80;;;;;;;0.89;55.23;100924.55;105970;1254;65043;-62
2024/01/20 06:25:27;;;;;;;14.80;6.90;;;;;;;0.80;55.18;100936.24;105909;1254;61792;-60
2024/01/20 06:27:54;;;;;;;14.90;5.50;;;;;;;0.69;55.37;100939.01;105411;1254;64045;-60
2024/01/20 06:30:21;;;;;;;14.10;7.00;;;;;;;0.55;55.24;100943.89;105298;1254;60454;-59
2024/01/20 06:32:48;;;;;;;11.50;5.80;;;;;;;0.57;55.19;100954.55;106393;1255;60885;-62
2024/01/20 06:35:15;;;;;;;11.20;5.40;;;;;;;0.55;55.40;100956.16;105657;1253;65548;-63
2024/01/20 06:37:42;;;;;;;14.00;6.10;;;;;;;0.52;55.59;100966.59;105851;1254;61491;-61
2024/01/20 06:40:10;;;;;;;12.10;5.60;;;;;;;0.46;55.75;100974.19;105816;1254;63772;-63
2024/01/20 06:42:36;;;;;;;16.70;7.00;;;;;;;0.43;55.79;100979.99;105749;1255;60445;-61
2024/01/20 06:45:04;;;;;;;14.40;5.90;;;;;;;0.42;55.87;100979.50;105225;1257;61553;-63
2024/01/20 06:47:31;;;;;;;16.80;6.00;;;;;;;0.44;55.97;100986.66;106062;1257;65653;-60
2024/01/20 06:49:58;;;;;;;14.10;5.90;;;;;;;0.45;56.18;100990.61;105356;1255;70690;-62
2024/01/20 06:52:24;;;;;;;15.10;6.40;;;;;;;0.44;55.85;100994.11;105283;1254;64479;-61
2024/01/20 06:54:51;;;;;;;15.10;5.50;;;;;;;0.43;55.76;100998.27;105421;1254;60540;-60
2024/01/20 06:57:18;;;;;;;13.70;6.90;;;;;;;0.39;55.82;101003.74;105314;1257;60370;-61
2024/01/20 06:59:45;;;;;;;15.50;5.80;;;;;;;0.40;55.81;101004.77;107495;1254;74377;-62
2024/01/20 07:02:11;;;;;;;10.00;3.80;;;;;;;0.44;55.54;101011.70;105710;1251;70876;-62
2024/01/20 07:04:38;;;;;;;10.70;4.70;;;;;;;0.45;55.50;101015.98;106583;1254;63808;-62
2024/01/20 07:07:06;;;;;;;11.20;4.20;;;;;;;0.48;55.26;101020.41;106417;1254;59247;-63
2024/01/20 07:09:38;;;;;;;15.60;5.00;;;;;;;0.51;55.02;101021.00;105994;1254;60469;-63
2024/01/20 07:12:05;;;;;;;10.20;4.00;;;;;;;0.53;54.96;101022.51;105870;1254;65167;-61
2024/01/20 07:14:32;;;;;;;12.40;5.00;;;;;;;0.52;55.06;101023.55;106153;1255;63142;-61
2024/01/20 07:16:59;;;;;;;12.60;4.90;;;;;;;0.52;55.10;101025.11;105470;1256;63928;-65
2024/01/20 07:19:26;;;;;;;15.90;5.20;;;;;;;0.52;55.23;101027.02;105432;1255;60505;-61
2024/01/20 07:21:54;;;;;;;10.80;3.10;;;;;;;0.53;55.18;101028.20;105502;1254;60438;-60
2024/01/20 07:24:21;;;;;;;12.30;4.20;;;;;;;0.52;55.21;101031.34;106398;1254;65709;-59
2024/01/20 07:26:47;;;;;;;10.20;4.00;;;;;;;0.53;55.17;101032.69;105582;1257;70975;-59
2024/01/20 07:29:14;;;;;;;8.20;3.80;;;;;;;0.59;54.90;101037.55;105427;1254;73219;-61
2024/01/20 07:31:41;;;;;;;16.20;4.80;;;;;;;0.65;54.86;101043.06;105509;1254;61002;-60
2024/01/20 07:34:07;;;;;;;15.40;4.70;;;;;;;0.75;54.95;101045.18;105818;1255;60562;-61
2024/01/20 07:36:34;;;;;;;12.30;3.10;;;;;;;0.91;54.80;101048.89;105388;1255;74418;-61
2024/01/20 07:39:02;;;;;;;9.10;4.10;;;;;;;1.01;53.95;101048.93;105218;1255;69757;-58
2024/01/20 07:41:29;;;;;;;9.90;4.80;;;;;;;0.97;53.91;101045.77;106016;1253;72072;-60
2024/01/20 07:43:55;;;;;;;11.10;4.90;;;;;;;0.97;54.01;101048.20;105454;1254;60358;-60
2024/01/20 07:46:22;;;;;;;13.10;4.00;;;;;;;0.97;54.01;101045.25;105337;1252;60467;-58
2024/01/20 07:48:49;;;;;;;11.10;4.40;;;;;;;1.01;54.05;101055.14;105482;1253;74346;-60
2024/01/20 07:51:16;;;;;;;10.50;3.70;;;;;;;1.06;54.00;101053.64;105654;1254;61524;-62
2024/01/20 07:53:43;;;;;;;13.20;5.30;;;;;;;1.06;53.78;101053.10;105619;1254;64423;-61
2024/01/20 07:56:11;;;;;;;13.00;6.20;;;;;;;1.02;53.75;101058.06;105841;1253;61004;-60
2024/01/20 07:58:38;;;;;;;32.50;7.60;;;;;;;0.98;53.69;101060.77;105885;1254;60480;-62
2024/01/20 08:01:05;;;;;;;15.60;6.20;;;;;;;0.92;53.77;101064.04;105903;1253;73829;-60
2024/01/20 08:03:32;;;;;;;10.00;4.10;;;;;;;0.89;53.91;101062.40;105315;1256;60423;-60
2024/01/20 08:05:59;;;;;;;14.60;4.80;;;;;;;0.90;53.91;101070.33;105927;1257;64111;-60
2024/01/20 08:08:26;;;;;;;15.40;5.80;;;;;;;0.90;53.87;101073.59;105357;1253;60358;-59
2024/01/20 08:10:53;;;;;;;14.40;6.30;;;;;;;0.89;53.90;101072.94;105322;1254;60675;-61
2024/01/20 08:13:20;;;;;;;18.10;6.80;;;;;;;0.91;54.05;101075.30;105400;1254;72250;-60
2024/01/20 08:15:48;;;;;;;11.70;5.20;;;;;;;0.98;53.92;101080.11;105193;1256;61824;-60
2024/01/20 08:18:15;;;;;;;11.30;3.60;;;;;;;1.02;53.76;101083.98;109212;1253;64042;-62
2024/01/20 08:20:42;;;;;;;13.00;5.60;;;;;;;1.06;53.46;101081.60;109360;1252;58564;-62
2024/01/20 08:23:08;;;;;;;11.60;5.40;;;;;;;1.10;53.46;101084.44;109316;1255;58516;-61
2024/01/20 08:25:35;;;;;;;9.00;3.70;;;;;;;1.22;53.25;101082.02;109311;1253;58306;-62
2024/01/20 08:28:01;;;;;;;12.30;5.00;;;;;;;1.33;52.73;101082.55;109365;1253;58255;-60
2024/01/20 08:30:28;;;;;;;15.00;4.80;;;;;;;1.44;52.61;101082.05;107024;1253;62656;-62
2024/01/20 08:32:55;;;;;;;11.00;4.80;;;;;;;1.52;52.39;101090.43;105485;1253;60542;-63
2024/01/20 08:35:27;;;;;;;13.40;4.90;;;;;;;1.56;52.06;101095.86;106171;1253;60546;-66
2024/01/20 08:37:54;;;;;;;13.60;5.20;;;;;;;1.48;52.02;101093.31;105389;1256;65084;-67
2024/01/20 08:40:21;;;;;;;11.50;4.50;;;;;;;1.37;52.13;101100.05;105531;1253;70659;-65
2024/01/20 08:42:48;;;;;;;10.40;7.40;;;;;;;1.34;52.46;101102.41;105455;1257;63707;-66
2024/01/20 08:45:14;;;;;;;12.90;6.50;;;;;;;1.35;52.32;101103.77;105616;1253;60452;-66
2024/01/20 08:47:41;;;;;;;13.50;5.10;;;;;;;1.34;52.43;101098.08;107499;1254;60421;-63
2024/01/20 08:50:09;;;;;;;11.00;5.50;;;;;;;1.38;52.33;101098.83;105779;1253;65105;-64
2024/01/20 08:52:36;;;;;;;10.90;4.40;;;;;;;1.43;52.31;101100.40;106725;1253;62236;-66
2024/01/20 08:55:04;;;;;;;12.20;4.40;;;;;;;1.49;52.00;101104.18;106096;1252;71899;-67
2024/01/20 08:57:33;;;;;;;13.30;4.90;;;;;;;1.43;51.90;101099.70;106156;1254;60462;-63
2024/01/20 09:00:00;;;;;;;13.70;5.40;;;;;;;1.38;52.12;101092.06;106051;1252;60499;-64
2024/01/20 09:02:27;;;;;;;12.60;5.90;;;;;;;1.36;51.97;101090.08;106196;1255;65155;-61
2024/01/20 09:04:54;;;;;;;12.00;5.20;;;;;;;1.32;51.99;101091.06;105618;1255;70724;-63
2024/01/20 09:07:21;;;;;;;16.20;5.40;;;;;;;1.30;52.11;101089.89;105412;1253;73075;-66
2024/01/20 09:09:48;;;;;;;11.30;4.50;;;;;;;1.29;52.13;101090.97;105662;1253;63215;-64
2024/01/20 09:12:15;;;;;;;12.60;4.10;;;;;;;1.29;51.90;101097.00;105728;1253;60569;-63
2024/01/20 09:14:42;;;;;;;10.70;4.00;;;;;;;1.26;51.59;101093.97;105755;1256;74392;-62
2024/01/20 09:17:08;;;;;;;7.20;4.00;;;;;;;1.27;51.78;101095.33;105904;1253;69059;-63
2024/01/20 09:19:35;;;;;;;12.10;4.10;;;;;;;1.30;51.79;101102.52;105897;1253;72454;-63
2024/01/20 09:22:03;;;;;;;10.40;4.10;;;;;;;1.31;51.71;101103.70;105920;1252;60408;-65
2024/01/20 09:24:30;;;;;;;10.00;3.60;;;;;;;1.32;51.78;101109.02;106193;1253;60534;-63
2024/01/20 09:26:57;;;;;;;11.00;2.60;;;;;;;1.31;51.59;101111.64;106150;1252;74416;-60
2024/01/20 09:29:23;;;;;;;9.40;4.30;;;;;;;1.29;50.86;101118.44;105509;1254;70962;-61
2024/01/20 09:31:50;;;;;;;13.70;3.80;;;;;;;1.28;50.63;101114.84;106337;1253;63739;-69
2024/01/20 09:34:17;;;;;;;11.90;4.60;;;;;;;1.29;50.50;101114.98;105609;1254;60523;-62
2024/01/20 09:36:45;;;;;;;9.10;3.60;;;;;;;1.28;50.02;101110.69;105728;1252;60553;-63
2024/01/20 09:39:12;;;;;;;10.30;3.00;;;;;;;1.32;50.01;101105.76;105834;1253;63732;-64
2024/01/20 09:41:39;;;;;;;8.10;3.30;;;;;;;1.35;50.03;101098.39;105724;1253;70664;-64
2024/01/20 09:44:07;;;;;;;8.50;3.90;;;;;;;1.43;49.95;101096.08;105939;1255;73011;-65
2024/01/20 09:46:34;;;;;;;7.30;2.60;;;;;;;1.49;49.68;101096.25;105871;1255;60773;-67
2024/01/20 09:49:01;;;;;;;6.00;3.00;;;;;;;1.52;49.03;101104.10;105861;1253;60594;-61
2024/01/20 09:51:28;;;;;;;7.10;2.70;;;;;;;1.53;48.22;101098.55;106324;1254;65332;-64
2024/01/20 09:53:59;;;;;;;7.50;3.20;;;;;;;1.57;47.93;101101.34;106017;1253;69726;-62
2024/01/20 09:56:27;;;;;;;6.70;1.90;;;;;;;1.58;47.76;101105.30;106260;1252;64891;-61
2024/01/20 09:58:57;;;;;;;8.20;2.70;;;;;;;1.59;47.49;101109.59;105587;1253;60506;-67
2024/01/20 10:01:24;;;;;;;7.80;2.30;;;;;;;1.60;47.23;101113.88;106314;1252;60566;-66
2024/01/20 10:03:51;;;;;;;5.80;1.60;;;;;;;1.61;46.86;101120.56;105547;1253;63979;-58
2024/01/20 10:06:18;;;;;;;7.10;2.10;;;;;;;1.60;46.55;101117.52;105352;1252;70834;-61
2024/01/20 10:08:45;;;;;;;5.00;1.70;;;;;;;1.59;46.16;101119.80;105662;1254;72699;-60
2024/01/20 10:11:12;;;;;;;7.70;2.20;;;;;;;1.58;46.21;101120.70;105433;1257;60473;-61
2024/01/20 10:13:38;;;;;;;5.30;2.20;;;;;;;1.57;46.29;101116.40;105404;1253;60471;-60
2024/01/20 10:16:06;;;;;;;7.60;2.50;;;;;;;1.56;46.06;101113.31;105761;1257;64901;-60
2024/01/20 10:18:33;;;;;;;14.30;2.60;;;;;;;1.56;46.04;101114.87;106153;1252;68942;-61
2024/01/20 10:21:04;;;;;;;5.80;1.80;;;;;;;1.50;46.01;101116.09;106065;1253;63764;-61
2024/01/20 10:23:37;;;;;;;5.80;1.50;;;;;;;1.43;45.99;101115.08;106073;1253;60636;-62
2024/01/20 10:26:05;;;;;;;10.70;2.10;;;;;;;1.41;45.90;101113.94;106015;1253;60493;-65
2024/01/20 10:28:33;;;;;;;5.90;1.80;;;;;;;1.41;45.84;101116.20;106029;1255;65296;-59
2024/01/20 10:31:08;;;;;;;6.80;2.40;;;;;;;1.40;45.91;101117.09;106034;1252;70410;-59
2024/01/20 10:33:35;;;;;;;7.80;3.00;;;;;;;1.42;45.89;101121.34;105984;1253;64447;-59
2024/01/20 10:36:03;;;;;;;6.70;1.90;;;;;;;1.44;45.67;101122.66;106102;1253;60366;-68
2024/01/20 10:38:31;;;;;;;6.40;2.10;;;;;;;1.45;45.80;101126.78;106166;1255;60563;-67
2024/01/20 10:40:58;;;;;;;8.80;3.00;;;;;;;1.48;46.27;101128.77;105241;1253;65417;-66
2024/01/20 10:43:27;;;;;;;6.30;2.40;;;;;;;1.47;46.06;101128.80;105488;1252;62192;-63
2024/01/20 10:46:01;;;;;;;7.20;2.90;;;;;;;1.42;46.06;101131.73;105541;1252;63847;-65
2024/01/20 10:48:28;;;;;;;7.50;2.50;;;;;;;1.41;46.14;101131.57;105345;1253;60652;-63
2024/01/20 10:50:58;;;;;;;7.60;2.30;;;;;;;1.40;46.47;101130.05;105907;1253;60550;-68
2024/01/20 10:53:25;;;;;;;10.30;4.00;;;;;;;1.41;46.57;101123.29;105431;1256;65314;-62
2024/01/20 10:55:52;;;;;;;9.00;2.80;;;;;;;1.42;46.26;101124.10;107007;1252;62148;-60
2024/01/20 10:58:23;;;;;;;7.90;2.50;;;;;;;1.43;46.41;101122.52;105199;1253;64020;-60
2024/01/20 11:00:50;;;;;;;10.10;3.30;;;;;;;1.43;46.38;101125.82;105248;1253;61130;-59
2024/01/20 11:03:18;;;;;;;7.10;2.30;;;;;;;1.43;46.42;101136.17;105450;1253;60429;-58
2024/01/20 11:05:46;;;;;;;7.40;2.70;;;;;;;1.40;46.44;101133.51;105492;1257;64920;-59
2024/01/20 11:08:13;;;;;;;4.80;1.60;;;;;;;1.37;46.39;101127.03;109351;1252;62724;-59
2024/01/20 11:10:41;;;;;;;8.80;2.40;;;;;;;1.36;46.36;101127.59;106575;1253;72511;-57
2024/01/20 11:13:10;;;;;;;7.80;2.80;;;;;;;1.37;46.57;101118.21;105738;1258;60552;-57
2024/01/20 11:15:41;;;;;;;5.20;2.20;;;;;;;1.42;46.42;101116.48;105944;1253;60435;-58
2024/01/20 11:18:25;;;;;;;5.40;1.80;;;;;;;1.45;46.31;101124.02;105775;1252;64927;-61
2024/01/20 11:21:02;;;;;;;8.50;2.10;;;;;;;1.49;46.02;101127.35;105598;1255;61921;-60